Time;durP1;ratioP1;P1;durP2;ratioP2;P2;SDS_P1;SDS_P2;PMS_P1;PMS_P2;Temp;Humidity;BMP_temperature;BMP_pressure;BME280_temperature;BME280_humidity;BME280_pressure;Samples;Min_cycle;Max_cycle;Signal;HPM_P1;HPM_P2
2022/12/09 00:02:18;;;;;;;0.20;0.20;;;;;;;1.58;100.00;100635.22;4996101;28;20030;-72
2022/12/09 00:04:43;;;;;;;0.20;0.20;;;;;;;1.57;100.00;100636.16;4996513;28;20034;-72
2022/12/09 00:07:09;;;;;;;0.20;0.20;;;;;;;1.56;100.00;100610.59;4998054;28;20030;-72
2022/12/09 00:09:34;;;;;;;0.20;0.20;;;;;;;1.57;100.00;100637.91;5000828;28;20041;-72
2022/12/09 00:11:59;;;;;;;0.20;0.20;;;;;;;1.54;100.00;100615.09;4999013;28;20105;-72
2022/12/09 00:14:25;;;;;;;0.20;0.20;;;;;;;1.42;100.00;100619.16;4999089;28;20137;-72
2022/12/09 00:16:50;;;;;;;0.20;0.20;;;;;;;1.43;100.00;100630.56;4982018;28;20030;-72
2022/12/09 00:19:16;;;;;;;0.20;0.20;;;;;;;1.53;100.00;100636.31;4997682;28;20071;-72
2022/12/09 00:21:42;;;;;;;0.20;0.20;;;;;;;1.38;100.00;100635.19;4997123;28;20029;-72
2022/12/09 00:24:10;;;;;;;0.25;0.25;;;;;;;1.55;100.00;100634.47;4981996;28;20092;-72
2022/12/09 00:26:36;;;;;;;0.13;0.13;;;;;;;1.48;100.00;100633.88;4982058;28;20164;-72
2022/12/09 00:29:01;;;;;;;0.20;0.20;;;;;;;1.58;100.00;100639.63;4998907;28;20022;-72
2022/12/09 00:31:31;;;;;;;0.20;0.20;;;;;;;1.55;100.00;100634.47;4997464;28;20045;-72
2022/12/09 00:33:58;;;;;;;0.20;0.20;;;;;;;1.45;100.00;100631.38;4995232;28;20569;-72
2022/12/09 00:36:24;;;;;;;0.20;0.20;;;;;;;1.38;100.00;100630.78;4981488;28;20030;-72
2022/12/09 00:38:49;;;;;;;0.20;0.20;;;;;;;1.46;100.00;100623.34;5000823;28;20030;-72
2022/12/09 00:41:16;;;;;;;0.20;0.20;;;;;;;1.47;100.00;100630.38;4994591;28;20140;-72
2022/12/09 00:43:42;;;;;;;0.20;0.20;;;;;;;1.53;100.00;100625.75;4998047;28;20033;-72
2022/12/09 00:46:07;;;;;;;0.20;0.20;;;;;;;1.44;100.00;100632.28;4978514;28;20029;-72
2022/12/09 00:48:33;;;;;;;0.20;0.20;;;;;;;1.24;100.00;100604.03;4976194;28;20112;-72
2022/12/09 00:50:59;;;;;;;0.20;0.20;;;;;;;1.68;100.00;100634.78;4998227;28;20034;-72
2022/12/09 00:53:25;;;;;;;0.20;0.20;;;;;;;1.34;100.00;100603.59;4977687;28;20022;-72
2022/12/09 00:55:50;;;;;;;0.20;0.20;;;;;;;1.62;100.00;100633.28;5001282;28;20584;-72
2022/12/09 00:58:16;;;;;;;0.20;0.20;;;;;;;1.55;100.00;100634.47;5000060;28;20885;-72
2022/12/09 01:00:41;;;;;;;0.20;0.20;;;;;;;1.40;100.00;100638.63;4998952;28;20153;-72
2022/12/09 01:03:12;;;;;;;0.20;0.20;;;;;;;1.29;100.00;100632.03;4993061;28;20936;-72
2022/12/09 01:05:37;;;;;;;0.20;0.20;;;;;;;1.10;100.00;100594.94;4979832;28;20030;-72
2022/12/09 01:08:02;;;;;;;0.20;0.20;;;;;;;1.30;100.00;100631.13;5002256;28;20041;-72
2022/12/09 01:10:30;;;;;;;0.20;0.20;;;;;;;1.39;100.00;100627.22;4996001;28;20033;-72
2022/12/09 01:12:56;;;;;;;0.20;0.20;;;;;;;1.07;100.00;100594.19;4997925;28;20039;-72
2022/12/09 01:15:21;;;;;;;0.20;0.20;;;;;;;1.27;100.00;100631.25;4998594;28;20034;-72
2022/12/09 01:17:46;;;;;;;0.20;0.20;;;;;;;1.45;100.00;100626.97;4994839;28;20141;-72
2022/12/09 01:20:12;;;;;;;0.20;0.20;;;;;;;1.26;100.00;100631.28;5000454;28;20109;-72
2022/12/09 01:22:37;;;;;;;0.20;0.20;;;;;;;1.41;100.00;100628.00;4998847;28;20033;-72
2022/12/09 01:25:03;;;;;;;0.20;0.20;;;;;;;1.31;100.00;100635.47;4979861;28;20036;-72
2022/12/09 01:27:29;;;;;;;0.20;0.20;;;;;;;1.30;100.00;100635.53;4995970;28;20404;-72
2022/12/09 01:29:54;;;;;;;0.30;0.30;;;;;;;1.33;100.00;100638.91;4997896;28;20052;-73
2022/12/09 01:32:20;;;;;;;0.30;0.30;;;;;;;1.25;100.00;100634.84;4989905;28;20480;-72
2022/12/09 01:34:45;;;;;;;0.20;0.20;;;;;;;1.27;100.00;100636.53;4975071;28;20080;-72
2022/12/09 01:37:10;;;;;;;0.30;0.30;;;;;;;1.24;100.00;100639.31;4989970;28;20046;-72
2022/12/09 01:39:36;;;;;;;0.20;0.20;;;;;;;1.10;100.00;100620.50;4993353;28;20053;-72
2022/12/09 01:42:03;;;;;;;0.20;0.20;;;;;;;1.44;100.00;100659.63;4997745;28;20447;-72
2022/12/09 01:44:33;;;;;;;0.20;0.20;;;;;;;1.26;100.00;100647.16;4969390;28;20030;-72
2022/12/09 01:47:00;;;;;;;0.20;0.20;;;;;;;1.48;100.00;100655.91;4981854;28;20034;-72
2022/12/09 01:49:25;;;;;;;0.30;0.30;;;;;;;1.41;100.00;100656.25;4976587;28;20567;-72
2022/12/09 01:51:55;;;;;;;0.20;0.20;;;;;;;1.34;100.00;100650.34;4996021;28;20148;-72
2022/12/09 01:54:21;;;;;;;0.20;0.20;;;;;;;1.25;100.00;100640.16;4978069;28;20026;-72
2022/12/09 01:56:46;;;;;;;0.20;0.20;;;;;;;1.28;100.00;100651.47;4989666;28;20464;-72
2022/12/09 01:59:13;;;;;;;0.20;0.20;;;;;;;1.20;100.00;100621.84;4979051;28;20425;-72
2022/12/09 02:01:40;;;;;;;0.30;0.30;;;;;;;1.24;100.00;100623.44;4995503;28;20029;-72
2022/12/09 02:04:05;;;;;;;0.30;0.30;;;;;;;1.30;100.00;100633.75;4975982;28;20036;-72
2022/12/09 02:06:31;;;;;;;0.20;0.20;;;;;;;1.32;100.00;100649.56;4975863;28;20026;-72
2022/12/09 02:08:56;;;;;;;0.20;0.20;;;;;;;1.33;100.00;100635.41;4995356;28;20308;-72
2022/12/09 02:11:43;;;;;;;0.30;0.30;;;;;;;1.37;100.00;100639.66;4983322;28;20035;-72
2022/12/09 02:14:17;;;;;;;0.20;0.20;;;;;;;1.37;100.00;100642.28;4966217;28;20061;-72
2022/12/09 02:16:58;;;;;;;0.30;0.30;;;;;;;1.37;100.00;100642.28;4971868;28;20029;-72
2022/12/09 02:19:36;;;;;;;0.20;0.20;;;;;;;1.40;100.00;100646.56;4995745;28;20038;-72
2022/12/09 02:22:02;;;;;;;0.20;0.20;;;;;;;1.38;100.00;100641.38;4974773;28;20153;-72
2022/12/09 02:24:50;;;;;;;0.20;0.20;;;;;;;1.44;100.00;100654.34;4997387;28;20540;-72
2022/12/09 02:27:17;;;;;;;0.20;0.20;;;;;;;1.39;100.00;100650.16;4983416;28;20600;-72
2022/12/09 02:29:58;;;;;;;0.22;0.22;;;;;;;1.46;100.00;100651.63;4985405;28;20396;-72
2022/12/09 02:32:57;;;;;;;0.20;0.20;;;;;;;1.42;100.00;100645.59;4975993;28;20060;-72
2022/12/09 02:35:25;;;;;;;0.20;0.20;;;;;;;1.46;100.00;100648.97;5002747;28;20026;-72
2022/12/09 02:37:56;;;;;;;0.20;0.20;;;;;;;1.38;100.00;100645.78;5003088;28;20073;-72
2022/12/09 02:40:56;;;;;;;0.20;0.20;;;;;;;1.44;100.00;100654.34;4997453;28;20030;-72
2022/12/09 02:43:24;;;;;;;0.20;0.20;;;;;;;1.45;100.00;100645.47;4999716;28;20049;-72
2022/12/09 02:45:50;;;;;;;0.32;0.32;;;;;;;1.43;100.00;100655.25;4979507;28;20044;-72
2022/12/09 02:48:18;;;;;;;0.20;0.20;;;;;;;1.39;100.00;100621.91;4966351;28;20049;-72
2022/12/09 02:50:45;;;;;;;0.20;0.20;;;;;;;1.33;100.00;100638.06;5002809;28;20038;-72
2022/12/09 02:53:11;;;;;;;0.30;0.30;;;;;;;1.39;100.00;100640.44;4997146;28;20036;-72
2022/12/09 02:55:38;;;;;;;0.20;0.20;;;;;;;1.37;100.00;100623.78;4973415;28;20110;-72
2022/12/09 02:58:03;;;;;;;0.20;0.20;;;;;;;1.34;100.00;100610.66;4982073;28;20293;-72
2022/12/09 03:00:28;;;;;;;0.30;0.30;;;;;;;1.45;100.00;100626.97;4976459;28;20043;-72
2022/12/09 03:02:56;;;;;;;0.20;0.20;;;;;;;1.45;100.00;100616.38;4995409;28;20062;-72
2022/12/09 03:05:34;;;;;;;0.20;0.20;;;;;;;1.53;100.00;100621.31;4975212;28;20113;-72
2022/12/09 03:08:09;;;;;;;0.20;0.20;;;;;;;1.56;100.00;100628.25;4990668;28;20463;-72
2022/12/09 03:10:38;;;;;;;0.20;0.20;;;;;;;1.56;100.00;100620.31;4977818;28;20029;-72
2022/12/09 03:13:09;;;;;;;0.20;0.20;;;;;;;1.55;100.00;100619.47;4979489;28;20812;-72
2022/12/09 03:15:35;;;;;;;0.20;0.20;;;;;;;1.54;100.00;100622.16;4982090;28;20495;-72
2022/12/09 03:18:03;;;;;;;0.20;0.20;;;;;;;1.37;100.00;100585.84;4985323;28;20038;-72
2022/12/09 03:20:29;;;;;;;0.20;0.20;;;;;;;1.57;100.00;100627.34;4980560;28;20038;-72
2022/12/09 03:22:58;;;;;;;0.20;0.20;;;;;;;1.60;100.00;100628.03;5002330;28;20733;-72
2022/12/09 03:25:30;;;;;;;0.20;0.20;;;;;;;1.61;100.00;100592.72;4999750;28;20025;-72
2022/12/09 03:28:04;;;;;;;0.20;0.20;;;;;;;1.46;100.00;100618.06;4982737;28;20373;-72
2022/12/09 03:30:33;;;;;;;0.30;0.30;;;;;;;1.34;100.00;100616.81;4982575;28;20032;-72
2022/12/09 03:32:59;;;;;;;0.30;0.30;;;;;;;1.38;100.00;100608.75;4981677;28;20033;-72
2022/12/09 03:35:38;;;;;;;0.20;0.20;;;;;;;1.44;100.00;100592.59;4980099;28;20041;-72
2022/12/09 03:38:05;;;;;;;0.20;0.20;;;;;;;1.23;100.00;100587.34;4985297;28;20026;-72
2022/12/09 03:40:31;;;;;;;0.20;0.20;;;;;;;1.20;100.00;100590.94;4975101;28;20038;-72
2022/12/09 03:43:03;;;;;;;0.20;0.20;;;;;;;1.31;100.00;100600.22;4992600;28;20121;-72
2022/12/09 03:45:30;;;;;;;0.20;0.20;;;;;;;1.26;100.00;100597.78;5004041;28;20030;-73
2022/12/09 03:47:55;;;;;;;0.20;0.20;;;;;;;1.16;100.00;100593.78;4966521;28;20032;-72
2022/12/09 03:50:22;;;;;;;0.20;0.20;;;;;;;1.18;100.00;100598.13;5001483;28;20025;-72
2022/12/09 03:52:55;;;;;;;0.20;0.20;;;;;;;0.99;100.00;100565.41;4998362;28;20035;-72
2022/12/09 03:55:27;;;;;;;0.20;0.20;;;;;;;1.08;100.00;100586.19;5000460;28;20029;-72
2022/12/09 03:57:56;;;;;;;0.30;0.30;;;;;;;1.28;100.00;100590.66;4983889;28;20085;-72
2022/12/09 04:00:21;;;;;;;0.20;0.20;;;;;;;1.08;100.00;100599.41;4974202;28;20034;-72
2022/12/09 04:02:47;;;;;;;0.30;0.30;;;;;;;1.10;100.00;100588.75;4999066;28;20547;-72
2022/12/09 04:05:12;;;;;;;0.20;0.20;;;;;;;1.04;100.00;100588.13;4985560;28;20068;-72
2022/12/09 04:07:38;;;;;;;0.20;0.20;;;;;;;1.15;100.00;100594.72;4985747;28;20497;-72
2022/12/09 04:10:04;;;;;;;0.30;0.30;;;;;;;0.98;100.00;100579.56;4978682;28;20042;-72
2022/12/09 04:12:29;;;;;;;0.28;0.28;;;;;;;1.16;100.00;100585.88;4999513;28;20063;-72
2022/12/09 04:14:54;;;;;;;0.20;0.20;;;;;;;0.79;100.00;100564.47;5001420;28;20040;-72
2022/12/09 04:17:19;;;;;;;0.20;0.20;;;;;;;0.92;100.00;100563.97;4966702;28;20363;-72
2022/12/09 04:19:45;;;;;;;0.20;0.20;;;;;;;0.84;100.00;100582.78;4977025;28;20396;-72
2022/12/09 04:22:10;;;;;;;0.30;0.30;;;;;;;0.95;100.00;100577.03;4979862;28;20117;-72
2022/12/09 04:24:36;;;;;;;0.30;0.30;;;;;;;0.88;100.00;100590.53;4986732;28;20030;-72
2022/12/09 04:27:01;;;;;;;0.30;0.30;;;;;;;0.95;100.00;100596.44;4998004;28;20042;-72
2022/12/09 04:29:26;;;;;;;0.30;0.30;;;;;;;0.68;100.00;100556.13;4988978;28;20112;-73
2022/12/09 04:31:52;;;;;;;0.30;0.30;;;;;;;0.73;100.00;100564.72;4999787;28;20076;-72
2022/12/09 04:34:17;;;;;;;0.22;0.22;;;;;;;0.83;100.00;100586.34;4979813;28;20071;-72
2022/12/09 04:36:42;;;;;;;0.30;0.30;;;;;;;0.61;100.00;100560.81;4965413;28;20389;-73
2022/12/09 04:39:08;;;;;;;0.20;0.20;;;;;;;0.77;100.00;100579.53;4970877;28;20480;-72
2022/12/09 04:41:33;;;;;;;0.20;0.20;;;;;;;0.64;100.00;100573.91;4993788;28;20030;-72
2022/12/09 04:43:59;;;;;;;0.30;0.30;;;;;;;0.80;100.00;100595.28;4996948;28;20025;-72
2022/12/09 04:46:25;;;;;;;0.22;0.22;;;;;;;0.65;100.00;100572.13;4981829;28;20034;-72
2022/12/09 04:48:50;;;;;;;0.20;0.20;;;;;;;0.78;100.00;100598.91;4981594;28;20381;-72
2022/12/09 04:51:15;;;;;;;0.25;0.25;;;;;;;0.77;100.00;100605.13;4977226;28;20461;-72
2022/12/09 04:53:41;;;;;;;0.20;0.20;;;;;;;0.77;100.00;100600.69;4959543;28;20065;-72
2022/12/09 04:56:12;;;;;;;0.25;0.25;;;;;;;0.75;100.00;100589.31;4976206;28;20026;-72
2022/12/09 04:58:38;;;;;;;0.20;0.20;;;;;;;0.63;100.00;100561.59;4983358;28;20113;-72
2022/12/09 05:01:12;;;;;;;0.20;0.20;;;;;;;0.66;100.00;100574.69;4979157;28;20081;-72
2022/12/09 05:03:37;;;;;;;;;;;;;;;0.79;100.00;100604.13;4960599;28;20355;-72
2022/12/09 05:06:04;;;;;;;0.30;0.30;;;;;;;0.76;100.00;100606.88;4998468;28;20020;-72
2022/12/09 05:08:29;;;;;;;0.30;0.30;;;;;;;0.63;100.00;100563.41;4999252;28;20212;-72
2022/12/09 05:10:55;;;;;;;0.30;0.30;;;;;;;0.64;100.00;100578.34;5001623;28;20045;-72
2022/12/09 05:13:20;;;;;;;0.22;0.22;;;;;;;0.76;100.00;100574.31;4959008;28;20026;-72
2022/12/09 05:15:45;;;;;;;0.30;0.30;;;;;;;0.74;100.00;100558.50;4981867;28;20069;-72
2022/12/09 05:18:11;;;;;;;0.30;0.30;;;;;;;0.88;100.00;100579.97;4995083;28;20116;-72
2022/12/09 05:20:39;;;;;;;0.30;0.30;;;;;;;1.03;100.00;100599.63;4972705;28;20022;-73
2022/12/09 05:23:05;;;;;;;0.30;0.30;;;;;;;0.94;100.00;100602.63;4957607;28;20034;-72
2022/12/09 05:25:31;;;;;;;0.30;0.30;;;;;;;0.88;100.00;100582.63;4981375;28;20053;-72
2022/12/09 05:27:56;;;;;;;0.35;0.35;;;;;;;1.11;100.00;100591.34;4976273;28;20045;-72
2022/12/09 05:30:21;;;;;;;0.30;0.30;;;;;;;1.02;100.00;100570.59;4982241;28;20044;-72
2022/12/09 05:32:47;;;;;;;0.30;0.30;;;;;;;0.84;100.00;100546.66;4983872;28;20069;-72
2022/12/09 05:35:12;;;;;;;0.30;0.30;;;;;;;0.88;100.00;100558.81;4999771;28;20026;-72
2022/12/09 05:37:37;;;;;;;0.30;0.30;;;;;;;1.10;100.00;100594.94;5005224;28;20109;-72
2022/12/09 05:40:03;;;;;;;0.30;0.30;;;;;;;1.08;100.00;100582.69;4984187;28;20394;-72
2022/12/09 05:42:29;;;;;;;0.30;0.30;;;;;;;1.17;100.00;100591.09;5002230;28;20206;-72
2022/12/09 05:44:54;;;;;;;0.30;0.30;;;;;;;1.18;100.00;100586.66;5003087;28;20826;-72
2022/12/09 05:47:20;;;;;;;0.30;0.30;;;;;;;1.20;100.00;100590.09;5004830;28;20100;-72
2022/12/09 05:49:45;;;;;;;0.20;0.20;;;;;;;1.18;100.00;100584.88;4998976;28;20598;-72
2022/12/09 05:52:13;;;;;;;0.30;0.30;;;;;;;1.19;100.00;100581.28;4989831;28;20030;-72
2022/12/09 05:54:39;;;;;;;0.30;0.30;;;;;;;1.21;100.00;100578.59;5003240;28;20586;-72
2022/12/09 05:57:05;;;;;;;0.25;0.25;;;;;;;1.31;100.00;100601.09;5003003;28;20112;-72
2022/12/09 05:59:30;;;;;;;0.30;0.30;;;;;;;1.29;100.00;100587.06;4993319;28;20120;-73
2022/12/09 06:01:56;;;;;;;0.20;0.20;;;;;;;1.34;100.00;100592.16;4984104;28;20041;-72
2022/12/09 06:04:21;;;;;;;0.20;0.20;;;;;;;1.31;100.00;100593.16;4996667;28;20042;-72
2022/12/09 06:06:46;;;;;;;0.20;0.20;;;;;;;1.27;100.00;100585.41;5002099;28;20033;-72
2022/12/09 06:09:12;;;;;;;0.20;0.20;;;;;;;1.21;100.00;100594.47;4998358;28;20041;-72
2022/12/09 06:11:38;;;;;;;0.20;0.20;;;;;;;1.22;100.00;100579.44;4980957;28;20030;-72
2022/12/09 06:14:06;;;;;;;0.30;0.30;;;;;;;1.16;100.00;100564.72;4993689;28;21987;-72
2022/12/09 06:16:32;;;;;;;0.20;0.20;;;;;;;1.21;100.00;100573.31;5004834;28;20037;-72
2022/12/09 06:18:57;;;;;;;0.30;0.30;;;;;;;1.27;100.00;100577.47;4999390;28;20036;-72
2022/12/09 06:21:22;;;;;;;0.22;0.22;;;;;;;1.25;100.00;100577.53;4995527;28;20049;-72
2022/12/09 06:23:48;;;;;;;0.30;0.30;;;;;;;1.24;100.00;100582.88;5001490;28;20041;-72
2022/12/09 06:26:27;;;;;;;0.20;0.20;;;;;;;1.22;100.00;100579.44;5001456;28;20028;-72
2022/12/09 06:28:53;;;;;;;0.30;0.30;;;;;;;1.29;100.00;100584.44;4978509;28;20026;-72
2022/12/09 06:31:18;;;;;;;0.30;0.30;;;;;;;1.20;100.00;100582.16;4978804;28;20830;-72
2022/12/09 06:33:44;;;;;;;0.20;0.20;;;;;;;1.14;100.00;100587.72;4979644;28;20033;-72
2022/12/09 06:36:09;;;;;;;0.30;0.30;;;;;;;1.14;100.00;100590.34;4999462;28;20112;-72
2022/12/09 06:38:35;;;;;;;0.20;0.20;;;;;;;1.11;100.00;100591.34;5004271;28;20444;-72
2022/12/09 06:41:04;;;;;;;0.20;0.20;;;;;;;0.95;100.00;100577.03;4995159;28;20027;-72
2022/12/09 06:43:30;;;;;;;0.20;0.20;;;;;;;1.06;100.00;100587.19;4999826;28;20487;-72
2022/12/09 06:45:55;;;;;;;0.30;0.30;;;;;;;1.06;100.00;100588.03;4998716;28;20029;-72
2022/12/09 06:48:20;;;;;;;0.30;0.30;;;;;;;1.08;100.00;100590.59;4997200;28;20120;-72
2022/12/09 06:50:46;;;;;;;0.30;0.30;;;;;;;1.10;100.00;100573.78;4997830;28;20080;-72
2022/12/09 06:53:11;;;;;;;0.30;0.30;;;;;;;1.12;100.00;100579.84;5005881;28;20113;-72
2022/12/09 06:55:37;;;;;;;0.20;0.20;;;;;;;1.22;100.00;100584.72;4978474;28;20057;-72
2022/12/09 06:58:02;;;;;;;0.25;0.25;;;;;;;1.17;100.00;100588.47;5000029;28;20061;-72
2022/12/09 07:00:27;;;;;;;0.30;0.30;;;;;;;1.17;100.00;100584.94;4996861;28;20125;-72
2022/12/09 07:02:53;;;;;;;0.30;0.30;;;;;;;1.17;100.00;100587.59;5000154;28;20044;-72
2022/12/09 07:05:18;;;;;;;0.30;0.30;;;;;;;1.15;100.00;100594.72;4997285;28;20496;-72
2022/12/09 07:07:49;;;;;;;0.20;0.20;;;;;;;1.05;100.00;100594.25;4995868;28;20538;-72
2022/12/09 07:10:14;;;;;;;0.20;0.20;;;;;;;1.03;100.00;100596.09;5000366;28;20113;-72
2022/12/09 07:12:39;;;;;;;0.20;0.20;;;;;;;1.09;100.00;100603.78;4981959;28;20028;-72
2022/12/09 07:15:05;;;;;;;0.20;0.20;;;;;;;0.92;100.00;100585.13;5001495;28;20129;-72
2022/12/09 07:17:31;;;;;;;0.40;0.40;;;;;;;1.17;100.00;100600.81;5000064;28;20036;-72
2022/12/09 07:19:56;;;;;;;0.40;0.40;;;;;;;1.32;100.00;100599.28;5001421;28;20046;-72
2022/12/09 07:22:21;;;;;;;0.40;0.40;;;;;;;1.08;100.00;100596.78;4998886;28;20148;-72
2022/12/09 07:24:47;;;;;;;0.30;0.30;;;;;;;1.06;100.00;100616.28;4999370;28;20026;-72
2022/12/09 07:27:13;;;;;;;0.40;0.40;;;;;;;0.80;100.00;100612.91;4979929;28;20061;-72
2022/12/09 07:29:38;;;;;;;0.40;0.40;;;;;;;0.85;100.00;100618.88;4996272;28;20104;-72
2022/12/09 07:32:04;;;;;;;0.30;0.30;;;;;;;0.82;100.00;100619.88;4995660;28;20383;-71
2022/12/09 07:34:30;;;;;;;0.30;0.30;;;;;;;0.54;100.00;100578.69;4994885;28;20443;-72
2022/12/09 07:36:56;;;;;;;0.20;0.20;;;;;;;0.70;100.00;100625.63;4997194;28;20029;-72
2022/12/09 07:39:21;;;;;;;0.40;0.40;;;;;;;0.89;100.00;100625.75;4977839;28;20101;-72
2022/12/09 07:41:52;;;;;;;0.30;0.30;;;;;;;0.64;100.00;100628.53;4977276;28;20034;-72
2022/12/09 07:44:17;;;;;;;0.30;0.30;;;;;;;0.60;100.00;100622.50;4991617;28;20034;-72
2022/12/09 07:46:42;;;;;;;0.30;0.30;;;;;;;0.51;100.00;100620.25;4996468;28;20034;-72
2022/12/09 07:49:09;;;;;;;0.30;0.30;;;;;;;0.76;100.00;100628.03;4999637;28;20082;-72
2022/12/09 07:51:35;;;;;;;0.30;0.30;;;;;;;0.64;100.00;100620.63;4977644;28;20029;-73
2022/12/09 07:54:00;;;;;;;0.30;0.30;;;;;;;0.63;100.00;100625.03;4995475;28;20034;-72
2022/12/09 07:56:27;;;;;;;0.30;0.30;;;;;;;0.48;100.00;100609.78;4975906;28;20045;-72
2022/12/09 07:58:53;;;;;;;0.30;0.30;;;;;;;0.40;100.00;100624.16;4991969;28;20136;-72
2022/12/09 08:01:28;;;;;;;0.20;0.20;;;;;;;0.20;100.00;100601.16;4963867;28;20052;-73
2022/12/09 08:03:54;;;;;;;0.20;0.20;;;;;;;0.37;100.00;100632.19;4986009;28;20463;-72
2022/12/09 08:06:21;;;;;;;0.25;0.25;;;;;;;0.34;100.00;100637.59;4981925;28;20052;-72
2022/12/09 08:08:47;;;;;;;0.20;0.20;;;;;;;0.32;100.00;100633.28;4979070;28;20048;-73
2022/12/09 08:11:18;;;;;;;0.20;0.20;;;;;;;0.11;100.00;100606.78;4980764;28;20484;-72
2022/12/09 08:13:43;;;;;;;0.30;0.30;;;;;;;0.28;100.00;100638.69;4975897;28;20460;-72
2022/12/09 08:16:10;;;;;;;0.30;0.30;;;;;;;0.06;100.00;100606.09;4999155;28;20038;-72
2022/12/09 08:18:36;;;;;;;0.30;0.30;;;;;;;-0.05;100.00;100595.94;4978051;28;20108;-72
2022/12/09 08:21:07;;;;;;;0.20;0.20;;;;;;;0.14;100.00;100633.94;4979537;28;20029;-72
2022/12/09 08:23:32;;;;;;;0.30;0.30;;;;;;;0.14;100.00;100630.41;4996477;28;20061;-73
2022/12/09 08:25:58;;;;;;;0.20;0.20;;;;;;;0.01;100.00;100630.00;4982903;28;20120;-72
2022/12/09 08:28:23;;;;;;;0.20;0.20;;;;;;;-0.25;100.00;100615.16;4975546;28;20022;-72
2022/12/09 08:30:49;;;;;;;0.20;0.20;;;;;;;-0.25;100.00;100625.72;4978653;28;20465;-72
2022/12/09 08:33:15;;;;;;;0.20;0.20;;;;;;;-0.26;100.00;100623.97;4992924;28;20460;-72
2022/12/09 08:35:41;;;;;;;0.20;0.20;;;;;;;-0.27;100.00;100627.53;4994091;28;20125;-72
2022/12/09 08:38:06;;;;;;;0.28;0.28;;;;;;;-0.43;100.00;100625.47;4978597;28;20104;-72
2022/12/09 08:40:31;;;;;;;0.30;0.30;;;;;;;-0.57;100.00;100599.56;4982953;28;20654;-72
2022/12/09 08:42:57;;;;;;;0.30;0.30;;;;;;;-0.31;100.00;100622.38;4982645;28;20068;-72
2022/12/09 08:45:22;;;;;;;0.30;0.30;;;;;;;-0.27;100.00;100604.66;4986116;28;20353;-72
2022/12/09 08:47:48;;;;;;;0.30;0.30;;;;;;;-0.04;100.00;100632.00;4972060;28;20038;-73
2022/12/09 08:50:13;;;;;;;0.30;0.30;;;;;;;-0.13;100.00;100616.47;4977304;28;20065;-72
2022/12/09 08:52:39;;;;;;;0.20;0.20;;;;;;;-0.02;100.00;100630.16;4993092;28;20026;-72
2022/12/09 08:55:05;;;;;;;0.35;0.35;;;;;;;0.02;100.00;100642.28;4995924;28;20036;-72
2022/12/09 08:57:30;;;;;;;0.25;0.25;;;;;;;0.14;100.00;100636.56;4996701;28;20032;-69
2022/12/09 08:59:55;;;;;;;0.20;0.20;;;;;;;0.31;100.00;100636.84;4999836;28;20057;-69
2022/12/09 09:02:21;;;;;;;0.20;0.20;;;;;;;0.40;100.00;100641.75;4975487;28;20157;-68
2022/12/09 09:04:46;;;;;;;0.30;0.30;;;;;;;0.50;100.00;100640.50;4981110;28;20041;-69
2022/12/09 09:07:12;;;;;;;0.20;0.20;;;;;;;0.62;100.00;100633.03;4972257;28;20026;-68
2022/12/09 09:09:38;;;;;;;0.30;0.30;;;;;;;0.65;100.00;100606.47;4995492;28;20026;-69
2022/12/09 09:12:04;;;;;;;0.30;0.30;;;;;;;0.96;100.00;100642.22;4992860;28;20484;-68
2022/12/09 09:14:29;;;;;;;0.30;0.30;;;;;;;1.17;100.00;100632.53;4999559;28;20076;-68
2022/12/09 09:16:55;;;;;;;0.20;0.20;;;;;;;1.38;100.00;100637.84;4993654;28;20036;-69
2022/12/09 09:19:24;;;;;;;0.30;0.30;;;;;;;1.65;100.00;100643.75;4995370;28;20033;-68
2022/12/09 09:21:49;;;;;;;0.30;0.30;;;;;;;1.92;100.00;100640.81;4984824;28;21993;-69
2022/12/09 09:24:16;;;;;;;0.28;0.28;;;;;;;1.94;100.00;100642.44;4998756;28;20026;-68
2022/12/09 09:26:42;;;;;;;0.20;0.20;;;;;;;2.01;100.00;100640.38;4995555;28;20064;-69
2022/12/09 09:29:12;;;;;;;0.30;0.30;;;;;;;2.11;100.00;100643.47;4993894;28;20021;-68
2022/12/09 09:31:37;;;;;;;0.30;0.30;;;;;;;2.45;100.00;100641.91;4974266;28;20728;-68
2022/12/09 09:34:03;;;;;;;0.20;0.20;;;;;;;2.93;100.00;100647.59;4974092;28;20535;-68
2022/12/09 09:36:28;;;;;;;0.20;0.20;;;;;;;3.22;100.00;100650.59;4987631;28;20030;-68
2022/12/09 09:38:55;;;;;;;0.20;0.20;;;;;;;3.41;100.00;100650.53;4994741;28;20484;-69
2022/12/09 09:41:48;;;;;;;0.63;0.20;;;;;;;3.66;100.00;100651.03;4976555;28;20408;-69
2022/12/09 09:44:27;;;;;;;0.20;0.20;;;;;;;3.63;100.00;100652.06;4994977;28;20546;-69
2022/12/09 09:46:54;;;;;;;0.20;0.20;;;;;;;3.53;100.00;100648.16;4977445;28;20056;-69
2022/12/09 09:49:35;;;;;;;0.10;0.10;;;;;;;3.15;100.00;100643.84;4979797;28;20113;-69
2022/12/09 09:52:04;;;;;;;0.20;0.20;;;;;;;2.74;100.00;100637.00;4994833;28;20029;-69
2022/12/09 09:54:30;;;;;;;0.20;0.20;;;;;;;2.62;100.00;100651.72;4992005;28;20041;-69
2022/12/09 09:57:01;;;;;;;0.20;0.20;;;;;;;2.39;100.00;100628.94;4993763;28;20029;-69
2022/12/09 09:59:42;;;;;;;0.20;0.20;;;;;;;2.40;100.00;100644.78;4982179;28;20022;-69
2022/12/09 10:02:10;;;;;;;0.20;0.20;;;;;;;2.35;100.00;100637.97;4978029;28;20053;-69
2022/12/09 10:04:45;;;;;;;0.20;0.20;;;;;;;2.28;100.00;100640.03;4978365;28;20025;-68
2022/12/09 10:07:21;;;;;;;0.20;0.20;;;;;;;2.20;100.00;100631.59;4974318;28;20148;-68
2022/12/09 10:10:16;;;;;;;0.20;0.20;;;;;;;1.94;100.00;100644.25;4977055;28;20048;-69
2022/12/09 10:13:09;;;;;;;0.20;0.20;;;;;;;1.56;100.00;100645.00;4979375;28;20421;-69
2022/12/09 10:15:41;;;;;;;0.20;0.20;;;;;;;1.82;100.00;100639.47;4976095;28;20068;-69
2022/12/09 10:18:15;;;;;;;0.30;0.30;;;;;;;1.42;100.00;100648.25;4976922;28;20030;-69
2022/12/09 10:20:42;;;;;;;0.25;0.25;;;;;;;1.27;100.00;100649.75;4974902;28;20073;-68
2022/12/09 10:23:12;;;;;;;0.30;0.30;;;;;;;1.15;100.00;100626.47;4978162;28;20034;-69
2022/12/09 10:25:44;;;;;;;0.28;0.28;;;;;;;1.28;100.00;100624.16;5005239;28;20156;-69
2022/12/09 10:28:24;;;;;;;0.30;0.30;;;;;;;1.25;100.00;100633.09;5001433;28;20033;-69
2022/12/09 10:30:51;;;;;;;0.30;0.30;;;;;;;1.28;100.00;100616.22;4998181;28;20038;-69
2022/12/09 10:33:25;;;;;;;0.20;0.20;;;;;;;1.17;100.00;100611.38;4977770;28;20037;-69
2022/12/09 10:35:51;;;;;;;0.20;0.20;;;;;;;1.46;100.00;100638.38;4999771;28;20076;-69
2022/12/09 10:38:17;;;;;;;0.20;0.20;;;;;;;1.51;100.00;100636.41;4981407;28;20029;-69
2022/12/09 10:40:46;;;;;;;0.30;0.30;;;;;;;1.46;100.00;100641.03;4983716;28;20990;-69
2022/12/09 10:43:34;;;;;;;0.30;0.30;;;;;;;1.73;100.00;100635.47;4995342;28;20037;-69
2022/12/09 10:46:01;;;;;;;0.30;0.30;;;;;;;1.44;100.00;100614.66;4971723;28;20517;-69
2022/12/09 10:48:37;;;;;;;0.20;0.20;;;;;;;1.40;100.00;100636.00;4969657;28;20023;-69
2022/12/09 10:51:25;;;;;;;0.22;0.22;;;;;;;1.43;100.00;100631.44;4978260;28;20056;-68
2022/12/09 10:53:52;;;;;;;0.30;0.30;;;;;;;1.10;100.00;100628.44;4997767;28;20045;-68
2022/12/09 10:56:24;;;;;;;0.20;0.20;;;;;;;1.15;100.00;100627.34;4997794;28;20068;-69
2022/12/09 10:59:08;;;;;;;0.30;0.30;;;;;;;0.67;100.00;100610.78;4982347;28;20038;-69
2022/12/09 11:02:08;;;;;;;0.30;0.30;;;;;;;1.03;100.00;100626.06;4997442;28;20029;-69
2022/12/09 11:04:35;;;;;;;0.30;0.30;;;;;;;0.85;100.00;100638.25;4984495;28;20050;-69
2022/12/09 11:07:15;;;;;;;0.30;0.30;;;;;;;0.91;100.00;100631.84;4994591;28;20029;-69
2022/12/09 11:09:43;;;;;;;0.30;0.30;;;;;;;0.72;100.00;100622.03;4962361;28;20045;-69
2022/12/09 11:12:27;;;;;;;0.30;0.30;;;;;;;0.78;100.00;100633.28;4974551;28;20657;-69
2022/12/09 11:14:55;;;;;;;0.30;0.30;;;;;;;0.66;100.00;100629.34;4996055;28;20045;-69
2022/12/09 11:17:22;;;;;;;0.20;0.20;;;;;;;0.83;100.00;100637.44;4975470;28;20030;-69
2022/12/09 11:19:53;;;;;;;0.30;0.30;;;;;;;0.71;100.00;100630.00;4979766;28;20037;-69
2022/12/09 11:22:59;;;;;;;0.28;0.28;;;;;;;0.89;100.00;100631.91;4979757;28;20033;-69
2022/12/09 11:25:23;;;;;;;0.20;0.20;;;;;;;1.03;100.00;100631.34;4985987;28;20125;-69
2022/12/09 11:27:59;;;;;;;0.30;0.30;;;;;;;0.93;100.00;100630.00;4996587;28;20030;-69
2022/12/09 11:30:27;;;;;;;0.30;0.30;;;;;;;1.00;100.00;100634.13;4978587;28;20149;-69